sensor_id;sensor_type;location;lat;lon;timestamp;pressure;altitude;pressure_sealevel;temperature
76583;BMP280;65462;52.148;7.940;2023-08-12T00:00:01;101021.59;;;21.22
76583;BMP280;65462;52.148;7.940;2023-08-12T00:02:36;101029.66;;;21.22
76583;BMP280;65462;52.148;7.940;2023-08-12T00:05:02;101018.13;;;21.22
76583;BMP280;65462;52.148;7.940;2023-08-12T00:07:28;101025.78;;;21.20
76583;BMP280;65462;52.148;7.940;2023-08-12T00:09:54;101029.25;;;21.17
76583;BMP280;65462;52.148;7.940;2023-08-12T00:12:21;101027.72;;;21.16
76583;BMP280;65462;52.148;7.940;2023-08-12T00:14:46;101023.09;;;21.16
76583;BMP280;65462;52.148;7.940;2023-08-12T00:17:12;101004.28;;;21.16
76583;BMP280;65462;52.148;7.940;2023-08-12T00:19:37;101005.44;;;21.15
76583;BMP280;65462;52.148;7.940;2023-08-12T00:22:02;101000.81;;;21.16
76583;BMP280;65462;52.148;7.940;2023-08-12T00:24:29;101001.22;;;21.14
76583;BMP280;65462;52.148;7.940;2023-08-12T00:26:55;100993.94;;;21.15
76583;BMP280;65462;52.148;7.940;2023-08-12T00:29:21;101001.22;;;21.14
76583;BMP280;65462;52.148;7.940;2023-08-12T00:31:46;101014.66;;;21.14
76583;BMP280;65462;52.148;7.940;2023-08-12T00:34:11;101006.97;;;21.13
76583;BMP280;65462;52.148;7.940;2023-08-12T00:36:36;101000.81;;;21.12
76583;BMP280;65462;52.148;7.940;2023-08-12T00:39:02;101002.00;;;21.11
76583;BMP280;65462;52.148;7.940;2023-08-12T00:41:28;101004.28;;;21.09
76583;BMP280;65462;52.148;7.940;2023-08-12T00:43:54;100987.38;;;21.09
76583;BMP280;65462;52.148;7.940;2023-08-12T00:46:19;100977.75;;;21.08
76583;BMP280;65462;52.148;7.940;2023-08-12T00:48:44;100990.06;;;21.05
76583;BMP280;65462;52.148;7.940;2023-08-12T00:51:10;100984.69;;;21.05
76583;BMP280;65462;52.148;7.940;2023-08-12T00:53:36;100977.81;;;21.04
76583;BMP280;65462;52.148;7.940;2023-08-12T00:56:01;100974.72;;;21.02
76583;BMP280;65462;52.148;7.940;2023-08-12T00:58:27;100964.38;;;21.01
76583;BMP280;65462;52.148;7.940;2023-08-12T01:00:52;100965.88;;;21.02
76583;BMP280;65462;52.148;7.940;2023-08-12T01:03:18;100963.97;;;21.02
76583;BMP280;65462;52.148;7.940;2023-08-12T01:05:46;100963.59;;;21.00
76583;BMP280;65462;52.148;7.940;2023-08-12T01:08:11;100960.91;;;21.00
76583;BMP280;65462;52.148;7.940;2023-08-12T01:10:39;100952.44;;;20.98
76583;BMP280;65462;52.148;7.940;2023-08-12T01:13:19;100954.38;;;20.98
76583;BMP280;65462;52.148;7.940;2023-08-12T01:15:49;100952.44;;;20.98
76583;BMP280;65462;52.148;7.940;2023-08-12T01:18:17;100949.00;;;20.98
76583;BMP280;65462;52.148;7.940;2023-08-12T01:20:43;100944.00;;;20.96
76583;BMP280;65462;52.148;7.940;2023-08-12T01:23:10;100935.56;;;20.94
76583;BMP280;65462;52.148;7.940;2023-08-12T01:25:36;100947.47;;;20.93
76583;BMP280;65462;52.148;7.940;2023-08-12T01:28:01;100938.63;;;20.93
76583;BMP280;65462;52.148;7.940;2023-08-12T01:30:27;100937.50;;;20.90
76583;BMP280;65462;52.148;7.940;2023-08-12T01:33:10;100937.50;;;20.90
76583;BMP280;65462;52.148;7.940;2023-08-12T01:35:44;100944.00;;;20.89
76583;BMP280;65462;52.148;7.940;2023-08-12T01:38:11;100934.41;;;20.88
76583;BMP280;65462;52.148;7.940;2023-08-12T01:40:38;100932.47;;;20.89
76583;BMP280;65462;52.148;7.940;2023-08-12T01:43:04;100930.97;;;20.88
76583;BMP280;65462;52.148;7.940;2023-08-12T01:45:30;100924.84;;;20.87
76583;BMP280;65462;52.148;7.940;2023-08-12T01:47:57;100930.97;;;20.84
76583;BMP280;65462;52.148;7.940;2023-08-12T01:50:22;100939.41;;;20.83
76583;BMP280;65462;52.148;7.940;2023-08-12T01:52:48;100927.50;;;20.84
76583;BMP280;65462;52.148;7.940;2023-08-12T01:55:15;100924.81;;;20.84
76583;BMP280;65462;52.148;7.940;2023-08-12T01:57:40;100933.66;;;20.84
76583;BMP280;65462;52.148;7.940;2023-08-12T02:00:06;100921.75;;;20.82
76583;BMP280;65462;52.148;7.940;2023-08-12T02:02:31;100920.97;;;20.81
76583;BMP280;65462;52.148;7.940;2023-08-12T02:04:56;100920.22;;;20.81
76583;BMP280;65462;52.148;7.940;2023-08-12T02:07:22;100919.81;;;20.86
76583;BMP280;65462;52.148;7.940;2023-08-12T02:09:47;100920.22;;;20.84
76583;BMP280;65462;52.148;7.940;2023-08-12T02:12:13;100919.44;;;20.84
76583;BMP280;65462;52.148;7.940;2023-08-12T02:14:38;100914.44;;;20.82
76583;BMP280;65462;52.148;7.940;2023-08-12T02:17:03;100901.75;;;20.79
76583;BMP280;65462;52.148;7.940;2023-08-12T02:19:33;100914.06;;;20.80
76583;BMP280;65462;52.148;7.940;2023-08-12T02:22:00;100906.41;;;20.79
76583;BMP280;65462;52.148;7.940;2023-08-12T02:24:26;100896.81;;;20.78
76583;BMP280;65462;52.148;7.940;2023-08-12T02:26:52;100897.94;;;20.77
76583;BMP280;65462;52.148;7.940;2023-08-12T02:29:17;100892.56;;;20.77
76583;BMP280;65462;52.148;7.940;2023-08-12T02:31:42;100896.38;;;20.76
76583;BMP280;65462;52.148;7.940;2023-08-12T02:34:07;100897.94;;;20.73
76583;BMP280;65462;52.148;7.940;2023-08-12T02:36:33;100915.22;;;20.72
76583;BMP280;65462;52.148;7.940;2023-08-12T02:38:58;100920.22;;;20.70
76583;BMP280;65462;52.148;7.940;2023-08-12T02:41:23;100915.59;;;20.67
76583;BMP280;65462;52.148;7.940;2023-08-12T02:43:48;100903.31;;;20.66
76583;BMP280;65462;52.148;7.940;2023-08-12T02:46:14;100900.25;;;20.71
76583;BMP280;65462;52.148;7.940;2023-08-12T02:48:41;100899.84;;;20.69
76583;BMP280;65462;52.148;7.940;2023-08-12T02:51:06;100899.47;;;20.67
76583;BMP280;65462;52.148;7.940;2023-08-12T02:53:31;100900.25;;;20.68
76583;BMP280;65462;52.148;7.940;2023-08-12T02:55:57;100894.88;;;20.68
76583;BMP280;65462;52.148;7.940;2023-08-12T02:58:22;100880.66;;;20.67
76583;BMP280;65462;52.148;7.940;2023-08-12T03:00:47;100890.28;;;20.68
76583;BMP280;65462;52.148;7.940;2023-08-12T03:03:12;100877.97;;;20.67
76583;BMP280;65462;52.148;7.940;2023-08-12T03:05:38;100876.47;;;20.66
76583;BMP280;65462;52.148;7.940;2023-08-12T03:08:04;100880.31;;;20.65
76583;BMP280;65462;52.148;7.940;2023-08-12T03:10:30;100879.53;;;20.65
76583;BMP280;65462;52.148;7.940;2023-08-12T03:12:55;100876.50;;;20.63
76583;BMP280;65462;52.148;7.940;2023-08-12T03:15:20;100868.78;;;20.61
76583;BMP280;65462;52.148;7.940;2023-08-12T03:17:46;100869.16;;;20.60
76583;BMP280;65462;52.148;7.940;2023-08-12T03:20:11;100871.84;;;20.60
76583;BMP280;65462;52.148;7.940;2023-08-12T03:22:37;100877.22;;;20.60
76583;BMP280;65462;52.148;7.940;2023-08-12T03:25:03;100877.63;;;20.58
76583;BMP280;65462;52.148;7.940;2023-08-12T03:27:28;100871.88;;;20.56
76583;BMP280;65462;52.148;7.940;2023-08-12T03:29:54;100882.97;;;20.55
76583;BMP280;65462;52.148;7.940;2023-08-12T03:32:19;100882.63;;;20.53
76583;BMP280;65462;52.148;7.940;2023-08-12T03:34:44;100888.34;;;20.51
76583;BMP280;65462;52.148;7.940;2023-08-12T03:37:09;100892.19;;;20.50
76583;BMP280;65462;52.148;7.940;2023-08-12T03:39:35;100886.06;;;20.50
76583;BMP280;65462;52.148;7.940;2023-08-12T03:42:00;100890.66;;;20.49
76583;BMP280;65462;52.148;7.940;2023-08-12T03:44:25;100887.56;;;20.51
76583;BMP280;65462;52.148;7.940;2023-08-12T03:46:51;100880.28;;;20.51
76583;BMP280;65462;52.148;7.940;2023-08-12T03:49:16;100874.91;;;20.51
76583;BMP280;65462;52.148;7.940;2023-08-12T03:51:41;100863.38;;;20.51
76583;BMP280;65462;52.148;7.940;2023-08-12T03:54:07;100881.06;;;20.52
76583;BMP280;65462;52.148;7.940;2023-08-12T03:56:32;100874.91;;;20.48
76583;BMP280;65462;52.148;7.940;2023-08-12T03:58:57;100878.38;;;20.48
76583;BMP280;65462;52.148;7.940;2023-08-12T04:01:23;100874.91;;;20.48
76583;BMP280;65462;52.148;7.940;2023-08-12T04:03:48;100873.00;;;20.45
76583;BMP280;65462;52.148;7.940;2023-08-12T04:06:13;100874.13;;;20.47
76583;BMP280;65462;52.148;7.940;2023-08-12T04:08:39;100864.16;;;20.44
76583;BMP280;65462;52.148;7.940;2023-08-12T04:11:04;100866.84;;;20.44
76583;BMP280;65462;52.148;7.940;2023-08-12T04:13:29;100868.75;;;20.47
76583;BMP280;65462;52.148;7.940;2023-08-12T04:15:55;100863.81;;;20.46
76583;BMP280;65462;52.148;7.940;2023-08-12T04:18:20;100867.28;;;20.46
76583;BMP280;65462;52.148;7.940;2023-08-12T04:20:46;100864.59;;;20.46
76583;BMP280;65462;52.148;7.940;2023-08-12T04:23:14;100864.94;;;20.45
76583;BMP280;65462;52.148;7.940;2023-08-12T04:25:40;100863.41;;;20.43
76583;BMP280;65462;52.148;7.940;2023-08-12T04:28:07;100861.13;;;20.42
76583;BMP280;65462;52.148;7.940;2023-08-12T04:30:32;100861.13;;;20.42
76583;BMP280;65462;52.148;7.940;2023-08-12T04:32:58;100861.13;;;20.42
76583;BMP280;65462;52.148;7.940;2023-08-12T04:35:23;100866.84;;;20.40
76583;BMP280;65462;52.148;7.940;2023-08-12T04:37:48;100856.50;;;20.42
76583;BMP280;65462;52.148;7.940;2023-08-12T04:40:14;100845.00;;;20.42
76583;BMP280;65462;52.148;7.940;2023-08-12T04:42:39;100841.91;;;20.43
76583;BMP280;65462;52.148;7.940;2023-08-12T04:45:05;100841.16;;;20.43
76583;BMP280;65462;52.148;7.940;2023-08-12T04:47:30;100836.53;;;20.43
76583;BMP280;65462;52.148;7.940;2023-08-12T04:49:55;100830.41;;;20.43
76583;BMP280;65462;52.148;7.940;2023-08-12T04:52:21;100825.81;;;20.43
76583;BMP280;65462;52.148;7.940;2023-08-12T04:54:46;100826.97;;;20.42
76583;BMP280;65462;52.148;7.940;2023-08-12T04:57:11;100830.81;;;20.42
76583;BMP280;65462;52.148;7.940;2023-08-12T04:59:37;100825.06;;;20.43
76583;BMP280;65462;52.148;7.940;2023-08-12T05:02:02;100822.38;;;20.43
76583;BMP280;65462;52.148;7.940;2023-08-12T05:04:27;100820.44;;;20.43
76583;BMP280;65462;52.148;7.940;2023-08-12T05:06:53;100809.69;;;20.43
76583;BMP280;65462;52.148;7.940;2023-08-12T05:09:18;100814.69;;;20.45
76583;BMP280;65462;52.148;7.940;2023-08-12T05:11:43;100811.22;;;20.45
76583;BMP280;65462;52.148;7.940;2023-08-12T05:14:09;100810.47;;;20.44
76583;BMP280;65462;52.148;7.940;2023-08-12T05:16:34;100804.31;;;20.43
76583;BMP280;65462;52.148;7.940;2023-08-12T05:18:59;100787.44;;;20.43
76583;BMP280;65462;52.148;7.940;2023-08-12T05:21:24;100784.78;;;20.43
76583;BMP280;65462;52.148;7.940;2023-08-12T05:23:50;100785.16;;;20.45
76583;BMP280;65462;52.148;7.940;2023-08-12T05:26:15;100787.84;;;20.45
76583;BMP280;65462;52.148;7.940;2023-08-12T05:28:40;100790.88;;;20.47
76583;BMP280;65462;52.148;7.940;2023-08-12T05:31:06;100787.84;;;20.49
76583;BMP280;65462;52.148;7.940;2023-08-12T05:33:31;100781.69;;;20.48
76583;BMP280;65462;52.148;7.940;2023-08-12T05:35:56;100795.88;;;20.52
76583;BMP280;65462;52.148;7.940;2023-08-12T05:38:23;100792.03;;;20.53
76583;BMP280;65462;52.148;7.940;2023-08-12T05:40:48;100795.50;;;20.54
76583;BMP280;65462;52.148;7.940;2023-08-12T05:43:13;100789.34;;;20.57
76583;BMP280;65462;52.148;7.940;2023-08-12T05:45:39;100780.91;;;20.58
76583;BMP280;65462;52.148;7.940;2023-08-12T05:48:04;100780.50;;;20.60
76583;BMP280;65462;52.148;7.940;2023-08-12T05:50:30;100776.69;;;20.61
76583;BMP280;65462;52.148;7.940;2023-08-12T05:52:55;100778.59;;;20.60
76583;BMP280;65462;52.148;7.940;2023-08-12T05:55:20;100782.81;;;20.65
76583;BMP280;65462;52.148;7.940;2023-08-12T05:57:45;100767.81;;;20.67
76583;BMP280;65462;52.148;7.940;2023-08-12T06:00:11;100770.53;;;20.71
76583;BMP280;65462;52.148;7.940;2023-08-12T06:02:37;100765.50;;;20.73
76583;BMP280;65462;52.148;7.940;2023-08-12T06:05:02;100759.00;;;20.74
76583;BMP280;65462;52.148;7.940;2023-08-12T06:07:27;100751.28;;;20.76
76583;BMP280;65462;52.148;7.940;2023-08-12T06:09:53;100759.34;;;20.79
76583;BMP280;65462;52.148;7.940;2023-08-12T06:12:18;100765.50;;;20.80
76583;BMP280;65462;52.148;7.940;2023-08-12T06:14:44;100768.94;;;20.80
76583;BMP280;65462;52.148;7.940;2023-08-12T06:17:09;100772.03;;;20.82
76583;BMP280;65462;52.148;7.940;2023-08-12T06:19:34;100776.59;;;20.85
76583;BMP280;65462;52.148;7.940;2023-08-12T06:22:00;100768.97;;;20.87
76583;BMP280;65462;52.148;7.940;2023-08-12T06:24:25;100769.72;;;20.91
76583;BMP280;65462;52.148;7.940;2023-08-12T06:26:50;100748.59;;;20.90
76583;BMP280;65462;52.148;7.940;2023-08-12T06:29:16;100746.66;;;20.94
76583;BMP280;65462;52.148;7.940;2023-08-12T06:31:41;100743.56;;;20.95
76583;BMP280;65462;52.148;7.940;2023-08-12T06:34:06;100745.09;;;21.00
76583;BMP280;65462;52.148;7.940;2023-08-12T06:36:32;100736.25;;;21.03
76583;BMP280;65462;52.148;7.940;2023-08-12T06:38:58;100727.78;;;21.04
76583;BMP280;65462;52.148;7.940;2023-08-12T06:41:23;100731.22;;;21.08
76583;BMP280;65462;52.148;7.940;2023-08-12T06:43:48;100720.88;;;21.10
76583;BMP280;65462;52.148;7.940;2023-08-12T06:46:14;100716.63;;;21.09
76583;BMP280;65462;52.148;7.940;2023-08-12T06:48:39;100723.88;;;21.19
76583;BMP280;65462;52.148;7.940;2023-08-12T06:51:04;100723.44;;;21.24
76583;BMP280;65462;52.148;7.940;2023-08-12T06:53:35;100720.38;;;21.29
76583;BMP280;65462;52.148;7.940;2023-08-12T06:56:01;100719.94;;;21.34
76583;BMP280;65462;52.148;7.940;2023-08-12T06:58:26;100725.69;;;21.36
76583;BMP280;65462;52.148;7.940;2023-08-12T07:00:51;100731.81;;;21.40
76583;BMP280;65462;52.148;7.940;2023-08-12T07:03:18;100729.53;;;21.42
76583;BMP280;65462;52.148;7.940;2023-08-12T07:05:44;100721.78;;;21.44
76583;BMP280;65462;52.148;7.940;2023-08-12T07:08:09;100726.81;;;21.46
76583;BMP280;65462;52.148;7.940;2023-08-12T07:10:38;100725.63;;;21.47
76583;BMP280;65462;52.148;7.940;2023-08-12T07:13:03;100722.53;;;21.48
76583;BMP280;65462;52.148;7.940;2023-08-12T07:15:28;100719.09;;;21.48
76583;BMP280;65462;52.148;7.940;2023-08-12T07:17:54;100721.78;;;21.48
76583;BMP280;65462;52.148;7.940;2023-08-12T07:20:24;100717.16;;;21.48
76583;BMP280;65462;52.148;7.940;2023-08-12T07:22:49;100724.81;;;21.54
76583;BMP280;65462;52.148;7.940;2023-08-12T07:25:15;100715.63;;;21.51
76583;BMP280;65462;52.148;7.940;2023-08-12T07:27:40;100721.75;;;21.52
76583;BMP280;65462;52.148;7.940;2023-08-12T07:30:06;100708.28;;;21.52
76583;BMP280;65462;52.148;7.940;2023-08-12T07:32:33;100703.69;;;21.52
76583;BMP280;65462;52.148;7.940;2023-08-12T07:34:59;100699.09;;;21.53
76583;BMP280;65462;52.148;7.940;2023-08-12T07:37:25;100699.09;;;21.53
76583;BMP280;65462;52.148;7.940;2023-08-12T07:39:51;100698.31;;;21.52
76583;BMP280;65462;52.148;7.940;2023-08-12T07:42:16;100697.53;;;21.52
76583;BMP280;65462;52.148;7.940;2023-08-12T07:44:42;100705.59;;;21.52
76583;BMP280;65462;52.148;7.940;2023-08-12T07:47:09;100702.91;;;21.52
76583;BMP280;65462;52.148;7.940;2023-08-12T07:49:34;100700.56;;;21.57
76583;BMP280;65462;52.148;7.940;2023-08-12T07:52:00;100687.16;;;21.54
76583;BMP280;65462;52.148;7.940;2023-08-12T07:54:26;100686.38;;;21.53
76583;BMP280;65462;52.148;7.940;2023-08-12T07:56:51;100682.94;;;21.53
76583;BMP280;65462;52.148;7.940;2023-08-12T07:59:19;100676.38;;;21.54
76583;BMP280;65462;52.148;7.940;2023-08-12T08:01:44;100674.88;;;21.53
76583;BMP280;65462;52.148;7.940;2023-08-12T08:04:09;100664.84;;;21.53
76583;BMP280;65462;52.148;7.940;2023-08-12T08:06:35;100663.72;;;21.54
76583;BMP280;65462;52.148;7.940;2023-08-12T08:09:00;100672.56;;;21.55
76583;BMP280;65462;52.148;7.940;2023-08-12T08:11:28;100675.25;;;21.55
76583;BMP280;65462;52.148;7.940;2023-08-12T08:13:53;100678.72;;;21.55
76583;BMP280;65462;52.148;7.940;2023-08-12T08:16:19;100688.25;;;21.56
76583;BMP280;65462;52.148;7.940;2023-08-12T08:18:44;100678.28;;;21.57
76583;BMP280;65462;52.148;7.940;2023-08-12T08:21:09;100675.59;;;21.57
76583;BMP280;65462;52.148;7.940;2023-08-12T08:23:35;100684.84;;;21.56
76583;BMP280;65462;52.148;7.940;2023-08-12T08:26:00;100674.06;;;21.56
76583;BMP280;65462;52.148;7.940;2023-08-12T08:28:25;100676.38;;;21.54
76583;BMP280;65462;52.148;7.940;2023-08-12T08:30:50;100667.16;;;21.55
76583;BMP280;65462;52.148;7.940;2023-08-12T08:33:16;100670.22;;;21.57
76583;BMP280;65462;52.148;7.940;2023-08-12T08:35:41;100659.44;;;21.57
76583;BMP280;65462;52.148;7.940;2023-08-12T08:38:07;100655.59;;;21.58
76583;BMP280;65462;52.148;7.940;2023-08-12T08:40:32;100653.69;;;21.58
76583;BMP280;65462;52.148;7.940;2023-08-12T08:43:02;100651.78;;;21.59
76583;BMP280;65462;52.148;7.940;2023-08-12T08:45:32;100654.81;;;21.61
76583;BMP280;65462;52.148;7.940;2023-08-12T08:47:59;100649.78;;;21.63
76583;BMP280;65462;52.148;7.940;2023-08-12T08:50:26;100660.16;;;21.64
76583;BMP280;65462;52.148;7.940;2023-08-12T08:52:52;100654.38;;;21.66
76583;BMP280;65462;52.148;7.940;2023-08-12T08:55:18;100651.66;;;21.69
76583;BMP280;65462;52.148;7.940;2023-08-12T08:57:44;100645.09;;;21.74
76583;BMP280;65462;52.148;7.940;2023-08-12T09:00:12;100645.84;;;21.78
76583;BMP280;65462;52.148;7.940;2023-08-12T09:02:40;100632.34;;;21.81
76583;BMP280;65462;52.148;7.940;2023-08-12T09:05:06;100623.06;;;21.86
76583;BMP280;65462;52.148;7.940;2023-08-12T09:07:32;100621.44;;;21.92
76583;BMP280;65462;52.148;7.940;2023-08-12T09:09:58;100634.09;;;21.95
76583;BMP280;65462;52.148;7.940;2023-08-12T09:12:25;100634.09;;;21.95
76583;BMP280;65462;52.148;7.940;2023-08-12T09:14:51;100639.88;;;21.97
76583;BMP280;65462;52.148;7.940;2023-08-12T09:17:16;100638.69;;;21.98
76583;BMP280;65462;52.148;7.940;2023-08-12T09:19:41;100631.41;;;21.98
76583;BMP280;65462;52.148;7.940;2023-08-12T09:22:08;100622.94;;;21.96
76583;BMP280;65462;52.148;7.940;2023-08-12T09:24:36;100629.84;;;22.01
76583;BMP280;65462;52.148;7.940;2023-08-12T09:27:02;100627.50;;;22.03
76583;BMP280;65462;52.148;7.940;2023-08-12T09:29:32;100625.97;;;22.02
76583;BMP280;65462;52.148;7.940;2023-08-12T09:32:18;100631.72;;;22.04
76583;BMP280;65462;52.148;7.940;2023-08-12T09:34:46;100633.66;;;22.03
76583;BMP280;65462;52.148;7.940;2023-08-12T09:37:13;100634.41;;;22.04
76583;BMP280;65462;52.148;7.940;2023-08-12T09:39:39;100625.97;;;22.02
76583;BMP280;65462;52.148;7.940;2023-08-12T09:42:05;100622.91;;;22.00
76583;BMP280;65462;52.148;7.940;2023-08-12T09:44:30;100626.00;;;21.98
76583;BMP280;65462;52.148;7.940;2023-08-12T09:46:57;100625.66;;;21.96
76583;BMP280;65462;52.148;7.940;2023-08-12T09:49:23;100612.94;;;21.97
76583;BMP280;65462;52.148;7.940;2023-08-12T09:51:50;100610.59;;;21.99
76583;BMP280;65462;52.148;7.940;2023-08-12T09:54:17;100614.06;;;21.99
76583;BMP280;65462;52.148;7.940;2023-08-12T09:56:43;100613.69;;;22.01
76583;BMP280;65462;52.148;7.940;2023-08-12T09:59:12;100609.03;;;22.01
76583;BMP280;65462;52.148;7.940;2023-08-12T10:01:38;100607.53;;;22.00
76583;BMP280;65462;52.148;7.940;2023-08-12T10:04:05;100599.00;;;22.05
76583;BMP280;65462;52.148;7.940;2023-08-12T10:06:35;100606.28;;;22.08
76583;BMP280;65462;52.148;7.940;2023-08-12T10:09:00;100595.81;;;22.14
76583;BMP280;65462;52.148;7.940;2023-08-12T10:11:25;100598.06;;;22.19
76583;BMP280;65462;52.148;7.940;2023-08-12T10:13:51;100593.38;;;22.26
76583;BMP280;65462;52.148;7.940;2023-08-12T10:16:16;100587.91;;;22.30
76583;BMP280;65462;52.148;7.940;2023-08-12T10:18:42;100597.91;;;22.33
76583;BMP280;65462;52.148;7.940;2023-08-12T10:21:12;100585.94;;;22.34
76583;BMP280;65462;52.148;7.940;2023-08-12T10:23:40;100593.25;;;22.33
76583;BMP280;65462;52.148;7.940;2023-08-12T10:26:06;100594.03;;;22.34
76583;BMP280;65462;52.148;7.940;2023-08-12T10:28:33;100596.41;;;22.32
76583;BMP280;65462;52.148;7.940;2023-08-12T10:31:05;100595.22;;;22.33
76583;BMP280;65462;52.148;7.940;2023-08-12T10:33:37;100597.16;;;22.32
76583;BMP280;65462;52.148;7.940;2023-08-12T10:36:03;100596.41;;;22.32
76583;BMP280;65462;52.148;7.940;2023-08-12T10:38:28;100593.31;;;22.30
76583;BMP280;65462;52.148;7.940;2023-08-12T10:41:23;100597.22;;;22.29
76583;BMP280;65462;52.148;7.940;2023-08-12T10:46:41;100594.13;;;22.27
76583;BMP280;65462;52.148;7.940;2023-08-12T10:49:14;100588.03;;;22.23
76583;BMP280;65462;52.148;7.940;2023-08-12T10:51:44;100582.66;;;22.23
76583;BMP280;65462;52.148;7.940;2023-08-12T10:54:14;100585.72;;;22.21
76583;BMP280;65462;52.148;7.940;2023-08-12T10:59:51;100573.84;;;22.19
76583;BMP280;65462;52.148;7.940;2023-08-12T11:02:31;100576.53;;;22.19
76583;BMP280;65462;52.148;7.940;2023-08-12T11:05:08;100578.13;;;22.16
76583;BMP280;65462;52.148;7.940;2023-08-12T11:07:44;100576.19;;;22.17
76583;BMP280;65462;52.148;7.940;2023-08-12T11:12:41;100585.81;;;22.14
76583;BMP280;65462;52.148;7.940;2023-08-12T11:15:07;100575.47;;;22.13
76583;BMP280;65462;52.148;7.940;2023-08-12T11:20:01;100565.06;;;22.11
76583;BMP280;65462;52.148;7.940;2023-08-12T11:22:26;100557.44;;;22.10
76583;BMP280;65462;52.148;7.940;2023-08-12T11:24:52;100557.00;;;22.11
76583;BMP280;65462;52.148;7.940;2023-08-12T11:27:18;100560.47;;;22.12
76583;BMP280;65462;52.148;7.940;2023-08-12T11:29:43;100561.56;;;22.14
76583;BMP280;65462;52.148;7.940;2023-08-12T11:32:09;100555.81;;;22.16
76583;BMP280;65462;52.148;7.940;2023-08-12T11:34:35;100549.97;;;22.17
76583;BMP280;65462;52.148;7.940;2023-08-12T11:37:02;100549.28;;;22.17
76583;BMP280;65462;52.148;7.940;2023-08-12T11:39:28;100551.53;;;22.18
76583;BMP280;65462;52.148;7.940;2023-08-12T11:41:53;100551.97;;;22.17
76583;BMP280;65462;52.148;7.940;2023-08-12T11:44:22;100557.34;;;22.17
76583;BMP280;65462;52.148;7.940;2023-08-12T11:46:47;100556.56;;;22.16
76583;BMP280;65462;52.148;7.940;2023-08-12T11:49:13;100559.28;;;22.16
76583;BMP280;65462;52.148;7.940;2023-08-12T11:51:38;100563.09;;;22.15
76583;BMP280;65462;52.148;7.940;2023-08-12T11:54:04;100553.13;;;22.16
76583;BMP280;65462;52.148;7.940;2023-08-12T11:56:29;100546.56;;;22.17
76583;BMP280;65462;52.148;7.940;2023-08-12T11:58:55;100549.19;;;22.20
76583;BMP280;65462;52.148;7.940;2023-08-12T12:01:21;100556.88;;;22.22
76583;BMP280;65462;52.148;7.940;2023-08-12T12:03:51;100544.13;;;22.26
76583;BMP280;65462;52.148;7.940;2023-08-12T12:06:16;100547.13;;;22.31
76583;BMP280;65462;52.148;7.940;2023-08-12T12:08:44;100537.84;;;22.36
76583;BMP280;65462;52.148;7.940;2023-08-12T12:11:11;100537.28;;;22.48
76583;BMP280;65462;52.148;7.940;2023-08-12T12:13:36;100541.88;;;22.51
76583;BMP280;65462;52.148;7.940;2023-08-12T12:16:02;100541.38;;;22.56
76583;BMP280;65462;52.148;7.940;2023-08-12T12:18:28;100534.00;;;22.60
76583;BMP280;65462;52.148;7.940;2023-08-12T12:23:21;100537.44;;;22.64
76583;BMP280;65462;52.148;7.940;2023-08-12T12:25:47;100541.66;;;22.65
76583;BMP280;65462;52.148;7.940;2023-08-12T12:28:12;100537.44;;;22.64
76583;BMP280;65462;52.148;7.940;2023-08-12T12:30:38;100543.59;;;22.65
76583;BMP280;65462;52.148;7.940;2023-08-12T12:33:03;100546.66;;;22.63
76583;BMP280;65462;52.148;7.940;2023-08-12T12:35:29;100550.97;;;22.60
76583;BMP280;65462;52.148;7.940;2023-08-12T12:37:54;100559.81;;;22.61
76583;BMP280;65462;52.148;7.940;2023-08-12T12:40:20;100552.84;;;22.63
76583;BMP280;65462;52.148;7.940;2023-08-12T12:42:45;100552.84;;;22.63
76583;BMP280;65462;52.148;7.940;2023-08-12T12:45:10;100559.00;;;22.64
76583;BMP280;65462;52.148;7.940;2023-08-12T12:47:35;100557.06;;;22.65
76583;BMP280;65462;52.148;7.940;2023-08-12T12:50:02;100544.38;;;22.65
76583;BMP280;65462;52.148;7.940;2023-08-12T12:52:28;100557.75;;;22.69
76583;BMP280;65462;52.148;7.940;2023-08-12T12:54:53;100551.50;;;22.75
76583;BMP280;65462;52.148;7.940;2023-08-12T12:57:18;100561.44;;;22.78
76583;BMP280;65462;52.148;7.940;2023-08-12T12:59:43;100565.69;;;22.79
76583;BMP280;65462;52.148;7.940;2023-08-12T13:02:09;100561.84;;;22.80
76583;BMP280;65462;52.148;7.940;2023-08-12T13:04:34;100555.56;;;22.87
76583;BMP280;65462;52.148;7.940;2023-08-12T13:07:00;100562.44;;;22.91
76583;BMP280;65462;52.148;7.940;2023-08-12T13:09:25;100571.22;;;22.95
76583;BMP280;65462;52.148;7.940;2023-08-12T13:11:50;100566.56;;;22.99
76583;BMP280;65462;52.148;7.940;2023-08-12T13:14:16;100566.06;;;23.04
76583;BMP280;65462;52.148;7.940;2023-08-12T13:16:44;100557.47;;;23.13
76583;BMP280;65462;52.148;7.940;2023-08-12T13:19:10;100556.53;;;23.23
76583;BMP280;65462;52.148;7.940;2023-08-12T13:21:35;100557.91;;;23.31
76583;BMP280;65462;52.148;7.940;2023-08-12T13:24:00;100566.97;;;23.40
76583;BMP280;65462;52.148;7.940;2023-08-12T13:26:28;100567.22;;;23.49
76583;BMP280;65462;52.148;7.940;2023-08-12T13:28:54;100580.19;;;23.58
76583;BMP280;65462;52.148;7.940;2023-08-12T13:31:19;100577.75;;;23.63
76583;BMP280;65462;52.148;7.940;2023-08-12T13:33:44;100566.47;;;23.68
76583;BMP280;65462;52.148;7.940;2023-08-12T13:36:10;100571.03;;;23.71
76583;BMP280;65462;52.148;7.940;2023-08-12T13:38:35;100581.00;;;23.74
76583;BMP280;65462;52.148;7.940;2023-08-12T13:41:00;100589.47;;;23.76
76583;BMP280;65462;52.148;7.940;2023-08-12T13:43:25;100598.31;;;23.77
76583;BMP280;65462;52.148;7.940;2023-08-12T13:45:51;100597.91;;;23.78
76583;BMP280;65462;52.148;7.940;2023-08-12T13:48:16;100612.66;;;23.74
76583;BMP280;65462;52.148;7.940;2023-08-12T13:50:42;100614.22;;;23.71
76583;BMP280;65462;52.148;7.940;2023-08-12T13:53:07;100604.75;;;23.63
76583;BMP280;65462;52.148;7.940;2023-08-12T13:55:32;100619.47;;;23.59
76583;BMP280;65462;52.148;7.940;2023-08-12T13:57:58;100632.28;;;23.55
76583;BMP280;65462;52.148;7.940;2023-08-12T14:00:24;100629.22;;;23.53
76583;BMP280;65462;52.148;7.940;2023-08-12T14:02:50;100621.53;;;23.51